createdAt,value
2023-05-23T00:01:21.338Z,75.37
2023-05-23T00:03:55.961Z,76.38
2023-05-23T00:06:26.826Z,76.94
2023-05-23T00:08:54.941Z,77.85
2023-05-23T00:11:26.969Z,77.57
2023-05-23T00:13:55.047Z,77.57
2023-05-23T00:16:23.852Z,76.48
2023-05-23T00:18:53.706Z,76.45
2023-05-23T00:21:21.932Z,78.47
2023-05-23T00:23:50.476Z,76.70
2023-05-23T00:26:18.390Z,77.44
2023-05-23T00:28:47.762Z,78.99
2023-05-23T00:31:15.764Z,77.05
2023-05-23T00:33:43.819Z,76.00
2023-05-23T00:36:13.352Z,76.36
2023-05-23T00:38:41.434Z,76.16
2023-05-23T00:41:09.376Z,76.65
2023-05-23T00:43:37.222Z,75.44
2023-05-23T00:46:05.784Z,76.49
2023-05-23T00:48:34.131Z,77.70
2023-05-23T00:51:02.113Z,76.66
2023-05-23T00:53:31.748Z,76.90
2023-05-23T00:55:59.702Z,76.52
2023-05-23T00:58:27.854Z,77.39
2023-05-23T01:00:55.724Z,78.17
2023-05-23T01:03:23.931Z,77.58
2023-05-23T01:05:52.875Z,77.80
2023-05-23T01:08:23.903Z,77.86
2023-05-23T01:10:53.856Z,78.49
2023-05-23T01:13:32.068Z,78.64
2023-05-23T01:16:07.331Z,79.00
2023-05-23T01:18:41.447Z,80.69
2023-05-23T01:21:14.240Z,81.51
2023-05-23T01:24:23.853Z,81.14
2023-05-23T01:27:06.738Z,80.16
2023-05-23T01:29:40.911Z,81.18
2023-05-23T01:32:13.020Z,79.44
2023-05-23T01:34:42.428Z,79.66
2023-05-23T01:37:14.648Z,79.42
2023-05-23T01:39:43.349Z,80.13
2023-05-23T01:42:11.722Z,80.63
2023-05-23T01:44:42.449Z,79.69
2023-05-23T01:47:14.472Z,79.39
2023-05-23T01:49:44.867Z,80.97
2023-05-23T01:52:13.446Z,80.46
2023-05-23T01:54:43.712Z,79.20
2023-05-23T01:57:12.223Z,79.43
2023-05-23T01:59:41.664Z,79.63
2023-05-23T02:02:09.779Z,78.31
2023-05-23T02:04:37.845Z,78.99
2023-05-23T02:07:06.111Z,78.42
2023-05-23T02:09:34.075Z,78.56
2023-05-23T02:12:01.953Z,78.43
2023-05-23T02:14:29.908Z,77.92
2023-05-23T02:17:00.522Z,77.88
2023-05-23T02:19:28.648Z,79.09
2023-05-23T02:21:56.622Z,77.59
2023-05-23T02:24:25.618Z,77.25
2023-05-23T02:26:53.802Z,78.34
2023-05-23T02:29:21.841Z,78.50
2023-05-23T02:31:49.875Z,77.99
2023-05-23T02:34:21.477Z,78.37
2023-05-23T02:36:49.523Z,78.51
2023-05-23T02:39:17.513Z,77.14
2023-05-23T02:41:47.223Z,77.23
2023-05-23T02:44:15.259Z,77.96
2023-05-23T02:46:43.241Z,78.13
2023-05-23T02:49:11.185Z,78.69
2023-05-23T02:51:40.481Z,77.83
2023-05-23T02:54:08.385Z,77.34
2023-05-23T02:56:40.397Z,77.85
2023-05-23T02:59:08.484Z,78.86
2023-05-23T03:01:36.377Z,79.03
2023-05-23T03:04:04.549Z,78.85
2023-05-23T03:06:33.922Z,78.49
2023-05-23T03:09:03.370Z,79.21
2023-05-23T03:11:31.159Z,78.64
2023-05-23T03:14:00.839Z,77.97
2023-05-23T03:16:28.759Z,78.66
2023-05-23T03:18:56.654Z,77.77
2023-05-23T03:21:24.491Z,80.31
2023-05-23T03:23:52.395Z,78.21
2023-05-23T03:26:21.934Z,77.77
2023-05-23T03:28:50.025Z,77.42
2023-05-23T03:31:20.492Z,76.95
2023-05-23T03:33:48.364Z,77.00
2023-05-23T03:36:17.480Z,77.17
2023-05-23T03:38:45.418Z,77.73
2023-05-23T03:41:13.477Z,77.70
2023-05-23T03:43:42.735Z,77.36
2023-05-23T03:46:10.723Z,77.28
2023-05-23T03:48:42.739Z,75.56
2023-05-23T03:51:11.158Z,78.67
2023-05-23T03:53:39.076Z,80.24
2023-05-23T03:56:09.460Z,80.79
2023-05-23T03:58:37.331Z,80.39
2023-05-23T04:01:11.885Z,82.69
2023-05-23T04:03:39.937Z,82.10
2023-05-23T04:06:08.681Z,81.50
2023-05-23T04:08:41.910Z,84.79
2023-05-23T04:11:09.858Z,84.65
2023-05-23T04:13:39.725Z,85.83
2023-05-23T04:16:07.916Z,86.56
2023-05-23T04:18:39.758Z,85.28
2023-05-23T04:21:09.241Z,84.08
2023-05-23T04:23:42.713Z,84.13
2023-05-23T04:26:13.129Z,81.30
2023-05-23T04:28:46.885Z,79.54
2023-05-23T04:31:14.973Z,79.43
2023-05-23T04:33:45.895Z,81.77
2023-05-23T04:36:13.961Z,81.46
2023-05-23T04:38:45.971Z,79.62
2023-05-23T04:41:16.426Z,80.27
2023-05-23T04:44:02.795Z,80.18
2023-05-23T04:46:42.305Z,82.30
2023-05-23T04:49:16.605Z,81.25
2023-05-23T04:51:44.905Z,81.48
2023-05-23T04:54:26.117Z,81.14
2023-05-23T04:56:55.273Z,79.02
2023-05-23T04:59:26.721Z,80.03
2023-05-23T05:01:54.659Z,79.33
2023-05-23T05:04:27.464Z,78.23
2023-05-23T05:06:58.129Z,77.24
2023-05-23T05:09:27.058Z,77.02
2023-05-23T05:11:54.924Z,76.60
2023-05-23T05:14:23.413Z,77.28
2023-05-23T05:16:51.505Z,78.22
2023-05-23T05:19:22.234Z,77.08
2023-05-23T05:21:56.841Z,78.59
2023-05-23T05:24:25.472Z,76.61
2023-05-23T05:26:53.896Z,77.81
2023-05-23T05:29:21.862Z,76.64
2023-05-23T05:31:53.374Z,76.25
2023-05-23T05:34:51.032Z,79.04
2023-05-23T05:37:21.475Z,79.93
2023-05-23T05:39:49.515Z,78.78
2023-05-23T05:42:17.653Z,77.06
2023-05-23T05:44:45.572Z,77.25
2023-05-23T05:47:14.095Z,76.38
2023-05-23T05:49:42.958Z,76.70
2023-05-23T05:52:11.935Z,75.93
2023-05-23T05:54:42.448Z,77.47
2023-05-23T05:57:10.834Z,76.45
2023-05-23T05:59:39.174Z,77.15
2023-05-23T06:02:08.264Z,74.95
2023-05-23T06:04:36.334Z,78.58
2023-05-23T06:07:04.542Z,77.68
2023-05-23T06:09:36.161Z,76.20
2023-05-23T06:12:05.917Z,75.78
2023-05-23T06:14:33.824Z,74.39
2023-05-23T06:17:02.274Z,74.37
2023-05-23T06:19:30.324Z,76.08
2023-05-23T06:21:58.629Z,78.51
2023-05-23T06:24:26.485Z,76.23
2023-05-23T06:26:54.452Z,75.80
2023-05-23T06:29:23.730Z,74.89
2023-05-23T06:31:51.774Z,73.60
2023-05-23T06:34:19.778Z,73.69
2023-05-23T06:36:50.732Z,73.67
2023-05-23T06:39:18.654Z,74.14
2023-05-23T06:41:46.705Z,75.19
2023-05-23T06:44:14.962Z,73.67
2023-05-23T06:46:47.975Z,77.19
2023-05-23T06:49:16.398Z,78.08
2023-05-23T06:51:46.337Z,77.46
2023-05-23T06:54:14.420Z,76.40
2023-05-23T06:56:42.779Z,79.01
2023-05-23T06:59:10.903Z,78.16
2023-05-23T07:01:40.069Z,80.62
2023-05-23T07:04:12.167Z,79.58
2023-05-23T07:06:42.598Z,79.33
2023-05-23T07:09:11.949Z,78.48
2023-05-23T07:11:41.561Z,77.98
2023-05-23T07:14:12.144Z,75.84
2023-05-23T07:16:46.426Z,76.30
2023-05-23T07:19:18.334Z,74.22
2023-05-23T07:21:50.692Z,75.28
2023-05-23T07:24:19.928Z,74.35
2023-05-23T07:26:48.625Z,72.13
2023-05-23T07:29:16.606Z,72.56
2023-05-23T07:31:47.017Z,73.82
2023-05-23T07:34:17.108Z,73.36
2023-05-23T07:36:54.131Z,74.61
2023-05-23T07:39:24.383Z,74.32
2023-05-23T07:41:53.468Z,73.45
2023-05-23T07:44:24.680Z,71.60
2023-05-23T07:46:53.759Z,70.44
2023-05-23T07:49:24.114Z,70.40
2023-05-23T07:51:52.296Z,71.12
2023-05-23T07:54:20.868Z,72.83
2023-05-23T07:56:52.342Z,71.32
2023-05-23T07:59:20.596Z,69.94
2023-05-23T08:01:51.548Z,71.27
2023-05-23T08:04:21.706Z,70.48
2023-05-23T08:07:04.360Z,69.86
2023-05-23T08:09:56.173Z,71.08
2023-05-23T08:12:26.848Z,69.77
2023-05-23T08:15:03.852Z,69.86
2023-05-23T08:17:41.017Z,71.04
2023-05-23T08:20:11.992Z,74.18
2023-05-23T08:22:41.378Z,71.90
2023-05-23T08:25:11.268Z,71.91
2023-05-23T08:27:41.373Z,69.82
2023-05-23T08:30:25.484Z,69.83
2023-05-23T08:32:54.096Z,69.32
2023-05-23T08:35:22.814Z,69.93
2023-05-23T08:37:52.590Z,68.34
2023-05-23T08:40:22.834Z,68.61
2023-05-23T08:43:04.177Z,69.21
2023-05-23T08:45:34.829Z,71.48
2023-05-23T08:48:09.417Z,68.82
2023-05-23T08:50:44.420Z,68.19
2023-05-23T08:53:20.269Z,65.36
2023-05-23T08:55:54.601Z,67.00
2023-05-23T08:58:29.975Z,66.55
2023-05-23T09:01:01.325Z,66.05
2023-05-23T09:03:29.972Z,66.66
2023-05-23T09:06:12.907Z,64.22
2023-05-23T09:08:46.047Z,65.55
2023-05-23T09:11:15.830Z,63.79
2023-05-23T09:13:48.264Z,61.82
2023-05-23T09:16:18.925Z,63.44
2023-05-23T09:18:51.428Z,62.91
2023-05-23T09:21:22.155Z,65.71
2023-05-23T09:24:13.576Z,65.12
2023-05-23T09:26:41.570Z,66.73
2023-05-23T09:29:09.584Z,65.55
2023-05-23T09:31:37.707Z,67.05
2023-05-23T09:34:06.951Z,67.27
2023-05-23T09:36:36.499Z,63.66
2023-05-23T09:39:06.471Z,62.69
2023-05-23T09:41:36.406Z,63.35
2023-05-23T09:44:10.461Z,62.14
2023-05-23T09:46:40.750Z,62.95
2023-05-23T09:49:18.148Z,64.45
2023-05-23T09:51:58.902Z,66.65
2023-05-23T09:54:27.003Z,66.05
2023-05-23T09:56:57.662Z,64.78
2023-05-23T09:59:30.033Z,63.35
2023-05-23T10:01:58.697Z,63.58
2023-05-23T10:04:33.342Z,64.41
2023-05-23T10:07:09.076Z,62.07
2023-05-23T10:09:41.623Z,64.16
2023-05-23T10:12:40.847Z,62.29
2023-05-23T10:15:10.809Z,60.87
2023-05-23T10:17:53.805Z,63.15
2023-05-23T10:20:26.937Z,59.85
2023-05-23T10:22:56.046Z,57.96
2023-05-23T10:25:26.734Z,60.62
2023-05-23T10:28:01.629Z,61.14
2023-05-23T10:30:31.328Z,60.84
2023-05-23T10:33:00.628Z,61.47
2023-05-23T10:35:40.188Z,60.99
2023-05-23T10:38:14.849Z,59.93
2023-05-23T10:40:54.652Z,62.59
2023-05-23T10:43:32.277Z,58.19
2023-05-23T10:46:00.735Z,58.31
2023-05-23T10:48:35.862Z,62.07
2023-05-23T10:51:06.048Z,60.64
2023-05-23T10:53:36.989Z,57.52
2023-05-23T10:56:08.331Z,55.79
2023-05-23T10:58:39.901Z,56.85
2023-05-23T11:01:10.020Z,59.01
2023-05-23T11:03:54.174Z,56.85
2023-05-23T11:06:32.076Z,56.70
2023-05-23T11:09:07.029Z,57.19
2023-05-23T11:12:02.724Z,58.39
2023-05-23T11:14:55.679Z,54.78
2023-05-23T11:17:33.653Z,55.85
2023-05-23T11:20:06.444Z,55.61
2023-05-23T11:22:43.874Z,56.41
2023-05-23T11:25:13.524Z,55.83
2023-05-23T11:27:42.440Z,57.30
2023-05-23T11:30:15.031Z,59.19
2023-05-23T11:32:43.799Z,58.39
2023-05-23T11:35:12.347Z,58.61
2023-05-23T11:37:40.770Z,57.62
2023-05-23T11:40:28.998Z,59.72
2023-05-23T11:42:57.498Z,57.38
2023-05-23T11:45:27.487Z,58.07
2023-05-23T11:47:55.996Z,54.23
2023-05-23T11:50:24.905Z,52.16
2023-05-23T11:52:56.314Z,52.71
2023-05-23T11:55:24.733Z,54.49
2023-05-23T11:57:53.133Z,53.01
2023-05-23T12:00:21.545Z,51.53
2023-05-23T12:02:50.884Z,52.52
2023-05-23T12:05:18.901Z,53.73
2023-05-23T12:07:48.377Z,52.56
2023-05-23T12:10:17.553Z,52.22
2023-05-23T12:12:46.146Z,50.78
2023-05-23T12:15:15.265Z,50.06
2023-05-23T12:18:04.509Z,50.75
2023-05-23T12:20:38.950Z,49.33
2023-05-23T12:23:10.320Z,51.26
2023-05-23T12:25:42.836Z,51.41
2023-05-23T12:28:13.925Z,51.90
2023-05-23T12:30:44.892Z,52.84
2023-05-23T12:33:13.477Z,53.21
2023-05-23T12:35:46.119Z,56.06
2023-05-23T12:38:18.007Z,54.85
2023-05-23T12:40:46.194Z,54.59
2023-05-23T12:43:16.821Z,53.57
2023-05-23T12:45:44.889Z,52.57
2023-05-23T12:48:12.989Z,51.16
2023-05-23T12:50:41.471Z,51.75
2023-05-23T12:53:17.923Z,50.12
2023-05-23T12:55:45.822Z,51.37
2023-05-23T12:58:16.372Z,51.58
2023-05-23T13:00:44.495Z,51.27
2023-05-23T13:03:12.662Z,53.09
2023-05-23T13:05:41.042Z,53.71
2023-05-23T13:08:09.331Z,52.74
2023-05-23T13:10:39.352Z,52.02
2023-05-23T13:13:07.751Z,53.64
2023-05-23T13:15:38.650Z,56.02
2023-05-23T13:18:07.183Z,57.03
2023-05-23T13:20:35.280Z,56.81
2023-05-23T13:23:03.318Z,54.83
2023-05-23T13:25:31.511Z,55.89
2023-05-23T13:28:01.924Z,56.10
2023-05-23T13:30:32.374Z,55.63
2023-05-23T13:33:00.638Z,58.69
2023-05-23T13:35:28.731Z,56.21
2023-05-23T13:37:57.052Z,55.19
2023-05-23T13:40:25.125Z,57.06
2023-05-23T13:42:53.482Z,58.58
2023-05-23T13:45:23.377Z,56.14
2023-05-23T13:47:52.638Z,58.54
2023-05-23T13:50:26.286Z,56.44
2023-05-23T13:52:56.131Z,55.03
2023-05-23T13:55:24.284Z,54.73
2023-05-23T14:02:21.812Z,56.14
2023-05-23T14:04:50.192Z,57.38
2023-05-23T14:07:19.103Z,58.72
2023-05-23T14:09:47.094Z,56.79
2023-05-23T14:12:16.594Z,55.71
2023-05-23T14:14:44.768Z,56.23
2023-05-23T14:17:17.004Z,54.14
2023-05-23T14:19:47.504Z,54.83
2023-05-23T14:23:07.296Z,55.18
2023-05-23T14:25:35.404Z,53.47
2023-05-23T14:28:09.435Z,53.66
2023-05-23T14:30:37.368Z,55.83
2023-05-23T14:33:18.901Z,51.39
2023-05-23T14:35:48.900Z,53.55
2023-05-23T14:38:16.914Z,54.11
2023-05-23T14:40:45.087Z,54.95
2023-05-23T14:43:13.214Z,54.62
2023-05-23T14:45:41.455Z,53.27
2023-05-23T14:48:11.534Z,51.74
2023-05-23T14:50:40.775Z,49.79
2023-05-23T14:53:10.776Z,49.20
2023-05-23T14:55:38.957Z,48.09
2023-05-23T14:58:07.194Z,49.26
2023-05-23T15:00:35.238Z,49.29
2023-05-23T15:03:03.623Z,51.68
2023-05-23T15:05:31.576Z,51.09
2023-05-23T15:07:59.705Z,53.07
2023-05-23T15:10:29.041Z,53.57
2023-05-23T15:12:57.323Z,52.71
2023-05-23T15:15:36.990Z,53.67
2023-05-23T15:18:08.022Z,53.66
2023-05-23T15:20:37.059Z,52.65
2023-05-23T15:23:05.053Z,51.29
2023-05-23T15:25:48.946Z,49.01
2023-05-23T15:28:18.020Z,51.98
2023-05-23T15:30:45.978Z,51.78
2023-05-23T15:33:15.894Z,54.67
2023-05-23T15:35:44.209Z,53.81
2023-05-23T15:38:14.351Z,54.45
2023-05-23T15:40:45.265Z,55.49
2023-05-23T15:43:13.254Z,53.97
2023-05-23T15:45:41.217Z,55.26
2023-05-23T15:48:09.672Z,54.55
2023-05-23T15:50:38.518Z,54.95
2023-05-23T15:53:06.625Z,51.63
2023-05-23T15:55:34.534Z,52.27
2023-05-23T15:58:03.995Z,53.69
2023-05-23T16:00:31.906Z,53.40
2023-05-23T16:02:59.966Z,53.23
2023-05-23T16:05:28.133Z,52.69
2023-05-23T16:07:56.307Z,54.08
2023-05-23T16:10:24.720Z,53.38
2023-05-23T16:12:52.728Z,54.61
2023-05-23T16:15:22.114Z,54.29
2023-05-23T16:17:52.559Z,52.10
2023-05-23T16:20:20.593Z,52.08
2023-05-23T16:22:48.572Z,52.96
2023-05-23T16:25:19.385Z,52.22
2023-05-23T16:27:47.560Z,51.67
2023-05-23T16:30:15.705Z,53.20
2023-05-23T16:32:46.782Z,54.96
2023-05-23T16:35:14.697Z,58.30
2023-05-23T16:37:48.141Z,55.91
2023-05-23T16:40:19.517Z,56.35
2023-05-23T16:42:51.642Z,58.41
2023-05-23T16:45:21.223Z,58.32
2023-05-23T16:47:52.027Z,60.43
2023-05-23T16:50:22.993Z,59.94
2023-05-23T16:52:56.498Z,58.56
2023-05-23T16:55:27.882Z,57.55
2023-05-23T16:57:56.518Z,58.91
2023-05-23T17:00:25.572Z,58.75
2023-05-23T17:02:58.576Z,59.49
2023-05-23T17:05:27.892Z,58.85
2023-05-23T17:07:57.030Z,60.45
2023-05-23T17:10:27.889Z,59.84
2023-05-23T17:12:56.023Z,58.91
2023-05-23T17:15:25.243Z,58.55
2023-05-23T17:17:57.303Z,59.59
2023-05-23T17:20:30.349Z,58.41
2023-05-23T17:22:58.530Z,59.83
2023-05-23T17:25:27.233Z,61.36
2023-05-23T17:27:56.860Z,60.40
2023-05-23T17:30:28.356Z,59.77
2023-05-23T17:33:01.217Z,60.48
2023-05-23T17:35:30.659Z,60.82
2023-05-23T17:37:58.654Z,60.97
2023-05-23T17:40:27.123Z,61.29
2023-05-23T17:42:55.013Z,59.68
2023-05-23T17:45:23.237Z,61.42
2023-05-23T17:47:51.214Z,62.05
2023-05-23T17:50:19.538Z,59.83
2023-05-23T17:52:49.473Z,60.70
2023-05-23T17:55:17.463Z,60.29
2023-05-23T17:57:45.437Z,62.01
2023-05-23T18:00:16.825Z,61.57
2023-05-23T18:02:45.053Z,59.95
2023-05-23T18:05:15.774Z,60.40
2023-05-23T18:07:43.894Z,63.09
2023-05-23T18:10:13.380Z,64.31
2023-05-23T18:12:41.889Z,64.33
2023-05-23T18:15:11.291Z,65.23
2023-05-23T18:17:39.520Z,64.01
2023-05-23T18:20:09.597Z,64.25
2023-05-23T18:22:37.565Z,64.17
2023-05-23T18:25:06.859Z,64.69
2023-05-23T18:27:36.279Z,64.73
2023-05-23T18:30:04.435Z,64.61
2023-05-23T18:32:32.472Z,65.40
2023-05-23T18:35:00.504Z,65.93
2023-05-23T18:37:28.470Z,64.88
2023-05-23T18:39:59.299Z,66.12
2023-05-23T18:42:27.269Z,65.44
2023-05-23T18:45:00.137Z,65.87
2023-05-23T18:47:30.516Z,66.67
2023-05-23T18:49:58.804Z,66.63
2023-05-23T18:52:27.038Z,67.23
2023-05-23T18:54:55.302Z,65.84
2023-05-23T18:57:23.650Z,66.15
2023-05-23T18:59:51.894Z,65.62
2023-05-23T19:02:21.589Z,66.24
2023-05-23T19:04:49.808Z,65.78
2023-05-23T19:07:17.812Z,66.32
2023-05-23T19:09:50.965Z,65.34
2023-05-23T19:12:18.915Z,65.83
2023-05-23T19:14:47.121Z,66.05
2023-05-23T19:17:15.182Z,67.32
2023-05-23T19:19:44.759Z,67.56
2023-05-23T19:22:12.914Z,66.72
2023-05-23T19:24:40.842Z,66.63
2023-05-23T19:27:11.333Z,66.18
2023-05-23T19:29:39.370Z,66.90
2023-05-23T19:32:07.310Z,66.91
2023-05-23T19:34:35.449Z,66.72
2023-05-23T19:37:04.753Z,67.53
2023-05-23T19:39:32.741Z,67.56
2023-05-23T19:42:00.882Z,67.62
2023-05-23T19:44:31.467Z,68.56
2023-05-23T19:46:59.439Z,69.26
2023-05-23T19:49:27.378Z,69.55
2023-05-23T19:51:55.459Z,69.25
2023-05-23T19:54:24.766Z,69.40
2023-05-23T19:56:52.717Z,68.84
2023-05-23T19:59:23.695Z,68.88
2023-05-23T20:01:51.799Z,68.38
2023-05-23T20:04:20.423Z,66.64
2023-05-23T20:06:48.735Z,66.59
2023-05-23T20:09:17.643Z,66.23
2023-05-23T20:11:47.876Z,66.52
2023-05-23T20:14:16.007Z,65.80
2023-05-23T20:16:43.992Z,65.08
2023-05-23T20:19:12.048Z,66.27
2023-05-23T20:21:40.101Z,66.34
2023-05-23T20:24:08.175Z,66.45
2023-05-23T20:26:36.116Z,65.99
2023-05-23T20:29:05.384Z,66.99
2023-05-23T20:31:35.928Z,66.97
2023-05-23T20:34:03.987Z,66.60
2023-05-23T20:36:31.947Z,68.00
2023-05-23T20:39:00.281Z,67.93
2023-05-23T20:41:29.518Z,67.18
2023-05-23T20:43:57.591Z,68.47
2023-05-23T20:46:27.665Z,69.00
2023-05-23T20:48:57.458Z,69.82
2023-05-23T20:51:25.509Z,70.36
2023-05-23T20:53:54.162Z,68.07
2023-05-23T20:56:24.521Z,69.43
2023-05-23T20:58:54.948Z,69.21
2023-05-23T21:01:26.827Z,69.31
2023-05-23T21:03:55.631Z,70.87
2023-05-23T21:06:23.793Z,70.88
2023-05-23T21:08:51.736Z,72.27
2023-05-23T21:11:19.760Z,71.06
2023-05-23T21:13:47.749Z,71.50
2023-05-23T21:16:16.054Z,72.00
2023-05-23T21:18:45.413Z,71.52
2023-05-23T21:21:13.359Z,71.47
2023-05-23T21:23:41.428Z,71.04
2023-05-23T21:26:09.358Z,70.41
2023-05-23T21:28:37.329Z,70.80
2023-05-23T21:31:06.521Z,70.41
2023-05-23T21:33:34.434Z,71.58
2023-05-23T21:36:03.937Z,71.09
2023-05-23T21:38:32.037Z,71.15
2023-05-23T21:41:00.147Z,70.61
2023-05-23T21:43:28.141Z,71.01
2023-05-23T21:45:56.208Z,71.16
2023-05-23T21:48:24.328Z,70.39
2023-05-23T21:50:52.260Z,71.47
2023-05-23T21:53:21.597Z,70.97
2023-05-23T21:55:49.515Z,69.23
2023-05-23T21:58:17.393Z,70.62
2023-05-23T22:00:46.009Z,70.79
2023-05-23T22:03:14.017Z,69.38
2023-05-23T22:05:42.168Z,69.77
2023-05-23T22:08:10.222Z,71.20
2023-05-23T22:10:40.727Z,71.21
2023-05-23T22:13:09.562Z,71.69
2023-05-23T22:15:37.505Z,72.54
2023-05-23T22:18:06.643Z,72.40
2023-05-23T22:20:38.854Z,72.14
2023-05-23T22:23:07.552Z,72.17
2023-05-23T22:25:35.574Z,72.74
2023-05-23T22:28:05.020Z,71.44
2023-05-23T22:30:32.904Z,71.98
2023-05-23T22:33:02.523Z,70.83
2023-05-23T22:35:32.070Z,71.60
2023-05-23T22:38:00.204Z,71.11
2023-05-23T22:40:28.155Z,70.51
2023-05-23T22:42:56.854Z,69.70
2023-05-23T22:45:30.064Z,69.90
2023-05-23T22:47:58.206Z,69.25
2023-05-23T22:50:27.059Z,69.94
2023-05-23T22:52:55.202Z,70.51
2023-05-23T22:55:23.220Z,71.87
2023-05-23T22:57:53.736Z,71.32
2023-05-23T23:00:22.269Z,70.32
2023-05-23T23:02:53.817Z,69.16
2023-05-23T23:05:22.105Z,70.13
2023-05-23T23:07:50.468Z,70.19
2023-05-23T23:10:18.618Z,69.07
2023-05-23T23:12:46.556Z,69.91
2023-05-23T23:15:15.582Z,69.21
2023-05-23T23:17:43.617Z,69.49
2023-05-23T23:20:13.850Z,67.78
2023-05-23T23:22:42.099Z,67.74
2023-05-23T23:25:10.970Z,69.30
2023-05-23T23:27:38.914Z,71.62
2023-05-23T23:30:08.202Z,70.88
2023-05-23T23:32:36.375Z,70.44
2023-05-23T23:35:04.728Z,69.77
2023-05-23T23:37:34.102Z,70.13
2023-05-23T23:40:02.048Z,69.39
2023-05-23T23:42:30.102Z,69.45
2023-05-23T23:44:58.010Z,70.29
2023-05-23T23:47:26.150Z,69.85
2023-05-23T23:49:54.149Z,70.62
2023-05-23T23:52:22.182Z,70.49
2023-05-23T23:54:51.447Z,71.44
2023-05-23T23:57:20.581Z,71.98
2023-05-23T23:59:48.589Z,71.97
